Latest Weather Observations for Dalby

IDQ60801

Issued at 9:13 pm EST Saturday 9 May 2026 (issued every 10 minutes, with the page automatically refreshed every 10 minutes)

About weather observations | Map of weather stations | Latest weather observations for QLD | Other Formats
Station Details ID: 041522 Name: DALBY AIRPORT Lat: -27.16 Lon: 151.26 Height: 346.23 m
Data from the previous 72 hours. | See also: Recent months at Dalby
Date/Time
EST
Temp
°C
App
Temp
°C
Dew
Point
°C
Rel
Hum
%
Delta-T
°C
Wind Press
QNH
hPa
Press
MSL
hPa
Rain since
9am
mm
Dir  Spd
km/h
Gust
km/h
Spd
kts
Gust
kts
09/09:00pm 10.8 7.5 6.4 74 2.1 E 13 13 7 7 1024.4 1023.8 0.0
09/08:30pm 11.1 8.4 5.6 69 2.6 E 9 11 5 6 1024.3 1023.7 0.0
09/08:00pm 12.7 9.7 6.1 64 3.2 E 11 15 6 8 1024.2 1023.6 0.0
09/07:30pm 13.4 10.0 6.0 61 3.6 ESE 13 15 7 8 1024.0 1023.4 0.0
09/07:00pm 16.2 12.9 6.6 53 4.8 ENE 13 17 7 9 1023.5 1022.9 0.0
09/06:30pm 18.0 13.7 7.1 49 5.6 ENE 19 22 10 12 1023.0 1022.4 0.0
09/06:00pm 17.2 13.2 6.7 50 5.3 E 17 19 9 10 1022.5 1021.9 0.0
09/05:30pm 18.7 15.4 6.2 44 6.3 E 13 15 7 8 1022.1 1021.5 0.0
09/05:00pm 21.7 18.0 6.4 37 7.9 ESE 15 22 8 12 1021.8 1021.2 0.0
09/04:30pm 23.5 20.1 5.9 32 9.1 ESE 13 19 7 10 1021.5 1020.9 0.0
09/04:00pm 24.1 19.9 5.9 31 9.4 SE 17 22 9 12 1021.2 1020.6 0.0
09/03:30pm 24.6 22.8 5.4 29 9.9 ENE 4 11 2 6 1021.1 1020.5 0.0
09/03:00pm 25.1 22.8 5.8 29 10.0 ENE 7 15 4 8 1021.0 1020.4 0.0
09/02:30pm 24.9 22.7 6.1 30 9.8 NNW 7 13 4 7 1021.0 1020.4 0.0
09/02:00pm 24.7 22.0 5.5 29 9.9 NNW 9 17 5 9 1021.0 1020.4 0.0
09/01:30pm 24.6 22.0 5.9 30 9.7 SSW 9 19 5 10 1021.2 1020.6 0.0
09/01:00pm 24.9 22.9 6.1 30 9.8 NW 6 13 3 7 1021.5 1020.9 0.0
09/12:30pm 23.2 20.5 5.6 32 9.0 NE 9 15 5 8 1022.0 1021.4 0.0
09/12:00pm 22.3 18.9 5.7 34 8.4 E 13 20 7 11 1022.7 1022.0 0.0
09/11:30am 21.2 17.8 5.9 37 7.8 ESE 13 24 7 13 1023.1 1022.5 0.0
09/11:00am 20.4 17.0 6.0 39 7.3 SE 13 22 7 12 1023.6 1023.0 0.0
09/10:30am 18.7 14.8 5.2 41 6.7 E 15 22 8 12 1024.0 1023.4 0.0
09/10:00am 17.0 12.8 4.0 42 6.2 SE 15 20 8 11 1024.1 1023.5 0.0
09/09:30am 15.0 11.2 4.1 48 5.1 SSE 13 19 7 10 1024.1 1023.5 0.0
09/09:00am 12.5 9.9 4.2 57 3.8 SSE 7 11 4 6 1024.0 1023.4 0.0
09/08:30am 10.6 7.9 3.6 62 3.1 SSE 7 9 4 5 1024.0 1023.4 0.0
09/08:00am 9.1 6.6 3.7 69 2.4 SE 6 9 3 5 1023.7 1023.1 0.0
09/07:30am 7.7 6.3 5.3 85 1.1 NE 2 6 1 3 1023.5 1022.9 0.0
09/07:00am 3.7 2.0 2.1 89 0.6 CALM 0 0 0 0 1022.9 1022.3 0.0
09/06:30am 2.9 0.3 1.0 87 0.7 E 4 6 2 3 1022.5 1021.9 0.0
09/06:00am 3.5 1.3 1.2 85 0.9 SE 2 6 1 3 1022.3 1021.7 0.0
09/05:30am 4.0 2.4 2.2 88 0.7 CALM 0 6 0 3 1022.0 1021.4 0.0
09/05:00am 2.9 -0.6 1.3 89 0.6 NE 9 11 5 6 1021.9 1021.3 0.0
09/04:30am 2.9 -0.2 1.1 88 0.7 NE 7 9 4 5 1021.8 1021.2 0.0
09/04:00am 2.8 -0.4 1.0 88 0.7 NNE 7 11 4 6 1021.7 1021.1 0.0
09/03:30am 3.7 0.7 1.1 83 1.0 SE 6 7 3 4 1021.5 1020.9 0.0
09/03:00am 2.9 -0.6 1.0 87 0.7 NE 9 11 5 6 1021.9 1021.3 0.0
09/02:30am 3.2 0.2 0.9 85 0.9 NE 6 7 3 4 1021.9 1021.3 0.0
09/02:00am 3.8 0.3 1.2 83 1.0 NNW 9 9 5 5 1022.0 1021.4 0.0
09/01:30am 4.3 1.7 1.0 79 1.3 NNE 4 7 2 4 1022.2 1021.6 0.0
09/01:00am 4.9 3.2 1.7 80 1.3 CALM 0 6 0 3 1022.4 1021.8 0.0
09/12:30am 4.6 1.6 0.9 77 1.5 N 6 7 3 4 1022.4 1021.8 0.0
09/12:00am 5.0 1.9 1.5 78 1.4 N 7 9 4 5 1022.7 1022.0 0.0
 
Date/Time
EST
Temp
°C
App
Temp
°C
Dew
Point
°C
Rel
Hum
%
Delta-T
°C
Wind Press
QNH
hPa
Press
MSL
hPa
Rain since
9am
mm
Dir  Spd
km/h
Gust
km/h
Spd
kts
Gust
kts
08/11:30pm 6.7 3.9 2.0 72 2.0 WNW 6 7 3 4 1022.7 1022.0 0.0
08/11:00pm 6.2 4.1 1.9 74 1.8 SSW 2 6 1 3 1022.7 1022.0 0.0
08/10:30pm 8.2 5.2 2.0 65 2.6 SW 7 9 4 5 1022.8 1022.1 0.0
08/10:00pm 9.2 6.2 2.1 61 3.0 WSW 7 9 4 5 1022.7 1022.0 0.0
08/09:30pm 11.3 8.3 1.8 52 4.1 SW 7 9 4 5 1022.5 1021.9 0.0
08/09:00pm 11.0 8.0 1.8 53 4.0 SW 7 9 4 5 1022.3 1021.7 0.0
08/08:30pm 12.1 8.7 2.0 50 4.4 SW 9 13 5 7 1022.2 1021.6 0.0
08/08:00pm 12.6 8.5 2.2 49 4.6 SW 13 15 7 8 1021.9 1021.3 0.0
08/07:30pm 13.4 8.9 2.0 46 5.1 SW 15 17 8 9 1021.8 1021.2 0.0
08/07:00pm 13.6 9.0 1.6 44 5.3 SW 15 17 8 9 1021.6 1021.0 0.0
08/06:30pm 14.5 10.3 1.4 41 5.8 SW 13 17 7 9 1021.2 1020.6 0.0
08/06:00pm 15.5 10.8 0.9 37 6.4 SW 15 19 8 10 1020.8 1020.2 0.0
08/05:30pm 16.6 11.8 0.3 33 7.2 SW 15 20 8 11 1020.5 1019.9 0.0
08/05:00pm 18.3 12.1 -0.5 28 8.2 SW 22 28 12 15 1020.2 1019.5 0.0
08/04:30pm 19.4 13.5 -0.6 26 8.8 SW 20 28 11 15 1019.9 1019.2 0.0
08/04:00pm 20.1 14.4 -0.5 25 9.2 WSW 19 22 10 12 1019.7 1019.0 0.0
08/03:30pm 19.9 14.0 -0.7 25 9.1 SW 20 30 11 16 1019.7 1019.0 0.0
08/03:00pm 20.1 14.4 -0.5 25 9.2 WSW 19 26 10 14 1019.6 1018.9 0.0
08/02:30pm 19.6 14.2 -1.5 24 9.2 SW 17 32 9 17 1019.9 1019.2 0.0
08/02:00pm 19.3 13.5 -1.2 25 8.9 SW 19 28 10 15 1020.1 1019.4 0.0
08/01:30pm 18.7 13.7 -1.2 26 8.6 SW 15 26 8 14 1020.5 1019.9 0.0
08/01:00pm 18.5 13.6 -0.8 27 8.4 WSW 15 22 8 12 1020.8 1020.2 0.0
08/12:30pm 17.4 11.5 -0.8 29 7.9 S 20 33 11 18 1021.4 1020.8 0.0
08/12:00pm 16.6 10.5 -2.0 28 7.8 SSW 20 33 11 18 1021.8 1021.2 0.0
08/11:30am 16.1 9.4 -1.0 31 7.3 SSW 24 33 13 18 1022.2 1021.6 0.0
08/11:00am 14.2 7.8 -1.8 33 6.5 SSW 22 30 12 16 1022.8 1022.1 0.0
08/10:30am 13.9 8.0 -0.5 37 6.1 SSW 20 30 11 16 1023.5 1022.9 0.0
08/10:00am 12.6 6.8 -1.7 37 5.8 S 19 28 10 15 1023.6 1023.0 0.0
08/09:30am 11.9 6.0 -0.9 41 5.2 SSW 20 26 11 14 1023.7 1023.1 0.0
08/09:00am 11.6 4.6 -0.5 43 5.0 S 26 41 14 22 1023.6 1023.0 0.2
08/08:30am 10.7 3.3 -0.7 45 4.6 S 28 39 15 21 1023.5 1022.9 0.2
08/08:00am 9.4 1.9 -1.3 47 4.2 SSW 28 35 15 19 1023.4 1022.8 0.2
08/07:30am 7.9 0.4 -1.6 51 3.7 SSW 28 35 15 19 1023.2 1022.6 0.2
08/07:00am 6.0 1.3 -1.6 58 2.9 SSW 13 19 7 10 1023.2 1022.6 0.2
08/06:30am 5.1 0.4 -2.0 60 2.6 SW 13 17 7 9 1023.0 1022.4 0.2
08/06:00am 5.4 0.3 -2.0 59 2.7 SSW 15 19 8 10 1022.4 1021.8 0.2
08/05:30am 5.3 1.0 -1.6 61 2.6 SW 11 17 6 9 1022.3 1021.7 0.2
08/05:00am 5.6 1.3 -1.8 59 2.8 SSW 11 13 6 7 1022.3 1021.7 0.2
08/04:30am 6.1 2.1 -2.0 56 3.0 SSW 9 13 5 7 1022.2 1021.6 0.2
08/04:00am 7.1 2.0 -2.3 51 3.5 SSW 15 19 8 10 1021.8 1021.2 0.2
08/03:30am 7.7 2.2 -2.3 49 3.8 SSW 17 22 9 12 1021.6 1021.0 0.2
08/03:00am 7.9 1.8 -2.1 49 3.8 SSW 20 26 11 14 1021.3 1020.7 0.2
08/02:30am 8.1 3.0 -2.0 49 3.9 SSW 15 20 8 11 1021.4 1020.8 0.2
08/02:00am 8.4 3.3 -2.0 48 4.0 SW 15 20 8 11 1021.6 1021.0 0.2
08/01:30am 8.8 3.3 -1.9 47 4.1 SSW 17 20 9 11 1021.4 1020.8 0.2
08/01:00am 9.4 4.0 -1.3 47 4.2 SSW 17 24 9 13 1021.5 1020.9 0.2
08/12:30am 10.6 4.7 -1.1 44 4.7 SSW 20 28 11 15 1021.6 1021.0 0.2
08/12:00am 11.3 4.7 -0.5 44 4.8 SSW 24 32 13 17 1021.6 1021.0 0.2
 
Date/Time
EST
Temp
°C
App
Temp
°C
Dew
Point
°C
Rel
Hum
%
Delta-T
°C
Wind Press
QNH
hPa
Press
MSL
hPa
Rain since
9am
mm
Dir  Spd
km/h
Gust
km/h
Spd
kts
Gust
kts
07/11:30pm 12.1 4.9 0.8 46 4.8 SSW 28 35 15 19 1021.4 1020.8 0.2
07/11:00pm 12.0 7.1 4.2 59 3.6 SSW 19 24 10 13 1021.3 1020.7 0.2
07/10:30pm 12.7 7.8 5.1 60 3.6 SSW 20 32 11 17 1021.2 1020.6 0.2
07/10:00pm 13.3 8.4 5.2 58 3.8 SSW 20 30 11 16 1021.1 1020.5 0.2
07/09:30pm 13.5 8.2 4.9 56 4.1 SW 22 30 12 16 1020.9 1020.3 0.2
07/09:00pm 12.7 9.0 4.4 57 3.8 SW 13 17 7 9 1020.8 1020.2 0.2
07/08:30pm 13.0 9.3 4.2 55 4.1 WSW 13 15 7 8 1020.6 1020.0 0.2
07/08:00pm 13.8 10.0 4.1 52 4.5 WSW 13 15 7 8 1020.5 1019.9 0.2
07/07:30pm 15.4 10.9 4.2 47 5.3 SW 17 24 9 13 1020.3 1019.6 0.2
07/07:00pm 16.0 11.6 4.7 47 5.4 SW 17 20 9 11 1019.8 1019.1 0.2
07/06:30pm 16.9 12.1 4.6 44 5.9 SW 19 24 10 13 1019.3 1018.7 0.2
07/06:00pm 17.8 12.8 4.7 42 6.4 SW 20 32 11 17 1019.0 1018.4 0.2
07/05:30pm 18.8 13.8 4.6 39 6.9 SW 20 26 11 14 1018.6 1018.0 0.2
07/05:00pm 20.0 14.6 4.5 36 7.6 SW 22 30 12 16 1018.2 1017.6 0.2
07/04:30pm 20.3 15.5 4.8 36 7.7 SW 19 24 10 13 1017.8 1017.1 0.2
07/04:00pm 21.2 15.5 4.7 34 8.2 WSW 24 32 13 17 1017.7 1017.0 0.2
07/03:30pm 21.4 14.6 4.9 34 8.3 WSW 30 37 16 20 1017.6 1016.9 0.2
07/03:00pm 21.7 14.5 5.2 34 8.3 WSW 32 37 17 20 1017.5 1016.8 0.2
07/02:30pm 22.2 14.9 4.7 32 8.8 WSW 32 43 17 23 1017.3 1016.6 0.2
07/02:00pm 23.3 17.4 5.7 32 9.0 SW 26 32 14 17 1017.6 1016.9 0.2
07/01:30pm 23.3 18.4 7.0 35 8.6 WSW 22 32 12 17 1017.5 1016.8 0.2
07/01:00pm 21.4 16.0 6.5 38 7.7 SW 24 33 13 18 1018.0 1017.4 0.2
07/12:30pm 21.0 15.9 5.8 37 7.7 SW 22 33 12 18 1018.2 1017.6 0.2
07/12:00pm 21.6 16.7 6.7 38 7.7 SW 22 32 12 17 1018.6 1018.0 0.2
07/11:30am 20.7 15.7 6.3 39 7.4 WSW 22 28 12 15 1019.0 1018.4 0.2
07/11:00am 20.1 15.8 7.1 43 6.7 SW 19 24 10 13 1019.6 1018.9 0.2
07/10:30am 19.5 14.9 6.6 43 6.6 SW 20 26 11 14 1019.8 1019.1 0.0
07/10:00am 19.8 15.9 7.2 44 6.5 SSW 17 24 9 13 1020.0 1019.3 0.0
07/09:30am 18.3 15.3 7.7 50 5.5 SSW 13 19 7 10 1020.3 1019.6 0.0
07/09:00am 16.8 14.2 7.7 55 4.6 SW 11 17 6 9 1020.3 1019.6 0.0
07/08:30am 16.3 12.8 7.3 55 4.6 SW 15 19 8 10 1020.3 1019.6 0.0
07/08:00am 15.9 13.7 7.9 59 4.1 SW 9 13 5 7 1019.9 1019.2 0.0
07/07:30am 15.5 12.2 8.0 61 3.8 S 15 22 8 12 1019.0 1018.4 0.0
07/07:00am 14.9 12.4 8.4 65 3.3 SSW 11 15 6 8 1018.8 1018.2 0.0
07/06:30am 15.3 12.7 7.8 61 3.8 SSW 11 13 6 7 1018.6 1018.0 0.0
07/06:00am 15.8 14.1 9.9 68 3.1 WSW 9 9 5 5 1018.5 1017.9 0.0
07/05:30am 15.8 14.6 9.5 66 3.3 SSW 6 9 3 5 1017.9 1017.3 0.0
07/05:00am 15.7 13.2 9.6 67 3.2 S 13 17 7 9 1017.6 1016.9 0.0
07/04:30am 16.0 13.3 10.5 70 3.0 SSW 15 17 8 9 1017.5 1016.8 0.0
07/04:00am 16.1 13.0 11.5 74 2.5 SSW 19 24 10 13 1017.3 1016.6 0.0
07/03:30am 16.4 15.2 15.1 92 0.8 SSW 15 17 8 9 1017.7 1017.0 0.0
07/03:00am 16.8 17.7 16.2 96 0.4 SSW 6 9 3 5 1017.7 1017.0 0.0
07/02:30am 15.6 15.9 14.5 93 0.6 S 6 7 3 4 1017.8 1017.1 0.0
07/02:00am 16.2 16.2 15.2 94 0.6 SSW 9 11 5 6 1017.7 1017.0 0.0
07/01:30am 16.2 16.5 15.1 93 0.6 SSW 7 9 4 5 1018.2 1017.6 0.0
07/01:00am 16.7 16.4 15.4 92 0.8 SSW 11 15 6 8 1017.9 1017.3 0.0
07/12:30am 17.7 18.4 16.2 91 0.9 SSW 7 7 4 4 1018.0 1017.4 0.0
07/12:00am 18.0 18.5 16.5 91 0.9 SE 9 9 5 5 1017.9 1017.3 0.0
 
Date/Time
EST
Temp
°C
App
Temp
°C
Dew
Point
°C
Rel
Hum
%
Delta-T
°C
Wind Press
QNH
hPa
Press
MSL
hPa
Rain since
9am
mm
Dir  Spd
km/h
Gust
km/h
Spd
kts
Gust
kts
06/11:30pm 17.5 17.7 15.8 90 1.0 E 9 11 5 6 1018.1 1017.5 0.0
06/11:00pm 18.0 18.1 16.5 91 0.9 SE 11 13 6 7 1018.2 1017.6 0.0
06/10:30pm 17.5 17.7 15.7 89 1.1 SE 9 11 5 6 1018.2 1017.6 0.0
06/10:00pm 17.1 16.9 14.7 86 1.4 ESE 9 13 5 7 1018.4 1017.8 0.0
06/09:30pm 18.4 18.8 15.3 82 1.8 SE 7 11 4 6 1018.4 1017.8 0.0

Other formats

Comma delimited format used in spreadsheet applications
http://www.bom.gov.au/fwo/IDQ60801/IDQ60801.94542.axf

JavaScript Object Notation format (JSON) in row-major order
http://www.bom.gov.au/fwo/IDQ60801/IDQ60801.94542.json

Data quality

Most of these data are generated automatically and are frequently updated. Quality checks on data are not normally performed. It is possible for incorrect values to appear. Refer to information at About Latest Weather Observations and please check the disclaimer before using these data.